createdAt,value
2023-04-01T00:04:54.588Z,100204.34
2023-04-01T00:10:11.184Z,100061.53
2023-04-01T00:15:19.644Z,100144.53
2023-04-01T00:20:21.647Z,100183.13
2023-04-01T00:25:34.930Z,100085.69
2023-04-01T00:30:43.193Z,100169.34
2023-04-01T00:35:49.247Z,100165.50
2023-04-01T00:40:53.382Z,100080.50
2023-04-01T00:45:52.208Z,100067.69
2023-04-01T00:50:54.104Z,99892.41
2023-04-01T00:56:26.641Z,100090.69
2023-04-01T01:01:34.917Z,100125.16
2023-04-01T01:06:50.390Z,100005.34
2023-04-01T01:12:11.826Z,99909.94
2023-04-01T01:17:13.490Z,100113.63
2023-04-01T01:22:52.752Z,100049.88
2023-04-01T01:28:16.763Z,99896.44
2023-04-01T01:33:45.571Z,100113.16
2023-04-01T01:38:47.142Z,100106.88
2023-04-01T01:43:56.147Z,100032.81
2023-04-01T01:49:02.789Z,100003.28
2023-04-01T01:54:04.688Z,99948.22
2023-04-01T01:59:21.484Z,100040.50
2023-04-01T02:04:28.443Z,99876.22
2023-04-01T02:09:35.647Z,99984.00
2023-04-01T02:14:55.505Z,100038.72
2023-04-01T02:20:23.575Z,100036.56
2023-04-01T02:25:48.831Z,99963.16
2023-04-01T02:36:51.775Z,99789.00
2023-04-01T02:41:53.231Z,99831.81
2023-04-01T02:47:15.932Z,99978.63
2023-04-01T02:52:20.657Z,100015.94
2023-04-01T02:57:25.653Z,99921.38
2023-04-01T03:02:36.949Z,100002.16
2023-04-01T03:07:37.961Z,99811.38
2023-04-01T03:12:36.274Z,99865.28
2023-04-01T03:17:38.864Z,99950.00
2023-04-01T03:22:42.870Z,99897.19
2023-04-01T03:27:46.473Z,99966.63
2023-04-01T03:32:41.882Z,99957.59
2023-04-01T03:37:42.562Z,100006.97
2023-04-01T03:42:46.998Z,100011.59
2023-04-01T03:47:56.902Z,99788.13
2023-04-01T03:52:54.143Z,99917.41
2023-04-01T03:58:21.393Z,100003.03
2023-04-01T04:03:21.696Z,99874.00
2023-04-01T04:08:23.136Z,99840.28
2023-04-01T04:13:27.536Z,99774.44
2023-04-01T04:18:33.220Z,99776.69
2023-04-01T04:23:38.595Z,99683.75
2023-04-01T04:28:44.655Z,99826.72
2023-04-01T04:33:45.214Z,99844.78
2023-04-01T04:38:43.481Z,99911.63
2023-04-01T04:43:40.582Z,99842.56
2023-04-01T04:48:37.316Z,99780.19
2023-04-01T04:53:36.929Z,99827.28
2023-04-01T04:58:32.872Z,99914.22
2023-04-01T05:03:36.208Z,99828.06
2023-04-01T05:08:47.604Z,99914.34
2023-04-01T05:13:51.916Z,99832.47
2023-04-01T05:18:54.496Z,99772.97
2023-04-01T05:23:53.809Z,99902.69
2023-04-01T05:28:59.582Z,99738.75
2023-04-01T05:34:06.389Z,99881.28
2023-04-01T05:39:05.229Z,99880.53
2023-04-01T05:44:02.185Z,99783.41
2023-04-01T05:49:16.697Z,99774.19
2023-04-01T05:55:31.922Z,99769.66
2023-04-01T06:19:29.441Z,99707.78
2023-04-01T06:25:07.237Z,99874.69
2023-04-01T06:31:08.736Z,99925.16
2023-04-01T06:37:02.941Z,99924.06
2023-04-01T06:43:38.116Z,99775.38
2023-04-01T06:49:39.579Z,99715.91
2023-04-01T07:14:18.828Z,99738.75
2023-04-01T07:32:54.439Z,99946.50
2023-04-01T07:39:06.208Z,99829.25
2023-04-01T07:45:19.570Z,99942.63
2023-04-01T07:51:14.940Z,99728.03
2023-04-01T07:57:06.312Z,99923.47
2023-04-01T08:03:17.534Z,99713.88
2023-04-01T08:16:01.401Z,99913.31
2023-04-01T08:21:44.465Z,99740.81
2023-04-01T08:27:12.168Z,99849.94
2023-04-01T08:32:49.631Z,99816.00
2023-04-01T08:39:26.485Z,99902.41
2023-04-01T08:45:27.872Z,99763.91
2023-04-01T08:58:29.542Z,99648.38
2023-04-01T09:11:54.819Z,99885.28
2023-04-01T09:17:37.303Z,99714.53
2023-04-01T09:23:39.017Z,99877.88
2023-04-01T09:29:56.014Z,99681.81
2023-04-01T09:42:38.160Z,99834.03
2023-04-01T10:13:42.686Z,99844.50
2023-04-01T10:19:47.147Z,99822.97
2023-04-01T10:53:00.755Z,99819.72
2023-04-01T11:05:34.883Z,99733.94
2023-04-01T11:11:50.095Z,99738.53
2023-04-01T11:17:31.825Z,99784.09
2023-04-01T11:23:07.914Z,99554.03
2023-04-01T11:28:53.697Z,99629.38
2023-04-01T11:34:42.438Z,99697.72
2023-04-01T11:46:23.898Z,99642.50
2023-04-01T11:51:55.709Z,99748.44
2023-04-01T11:57:40.965Z,99558.97
2023-04-01T12:03:24.101Z,99730.78
2023-04-01T12:09:48.429Z,99627.25
2023-04-01T12:15:35.198Z,99724.53
2023-04-01T12:21:21.736Z,99724.34
2023-04-01T12:27:02.427Z,99714.00
2023-04-01T12:32:21.420Z,99477.16
2023-04-01T12:37:32.188Z,99539.13
2023-04-01T12:42:59.392Z,99714.13
2023-04-01T12:48:26.746Z,99573.81
2023-04-01T12:53:41.881Z,99714.97
2023-04-01T13:04:53.007Z,99495.59
2023-04-01T13:10:06.750Z,99727.69
2023-04-01T13:15:32.692Z,99686.59
2023-04-01T13:20:45.991Z,99723.72
2023-04-01T13:26:06.948Z,99661.09
2023-04-01T13:31:40.023Z,99537.63
2023-04-01T13:37:11.696Z,99500.53
2023-04-01T13:42:29.486Z,99661.78
2023-04-01T13:54:13.167Z,99648.34
2023-04-01T14:00:07.921Z,99538.94
2023-04-01T14:05:43.217Z,99714.84
2023-04-01T14:11:47.595Z,99716.03
2023-04-01T14:24:26.378Z,99526.16
2023-04-01T14:30:25.743Z,99534.38
2023-04-01T14:36:05.588Z,99505.47
2023-04-01T14:41:48.223Z,99464.78
2023-04-01T14:47:20.324Z,99660.09
2023-04-01T14:52:35.508Z,99481.84
2023-04-01T15:03:19.658Z,99575.84
2023-04-01T15:08:22.374Z,99571.25
2023-04-01T15:13:35.819Z,99537.28
2023-04-01T15:19:03.722Z,99671.09
2023-04-01T15:24:11.289Z,99509.47
2023-04-01T15:29:36.034Z,99686.47
2023-04-01T15:34:47.781Z,99701.53
2023-04-01T15:40:00.212Z,99585.94
2023-04-01T15:45:09.407Z,99699.78
2023-04-01T15:50:43.234Z,99492.41
2023-04-01T15:55:50.552Z,99688.63
2023-04-01T16:00:52.531Z,99650.09
2023-04-01T16:06:07.587Z,99511.59
2023-04-01T16:11:26.473Z,99672.81
2023-04-01T16:16:51.039Z,99659.19
2023-04-01T16:21:55.553Z,99552.38
2023-04-01T16:27:26.297Z,99665.28
2023-04-01T16:32:54.544Z,99590.50
2023-04-01T16:38:05.887Z,99550.25
2023-04-01T16:44:07.677Z,99691.25
2023-04-01T16:49:44.340Z,99721.63
2023-04-01T16:55:08.157Z,99718.84
2023-04-01T17:00:19.866Z,99729.31
2023-04-01T17:05:15.463Z,99736.53
2023-04-01T17:10:36.423Z,99570.47
2023-04-01T17:15:49.488Z,99649.00
2023-04-01T17:21:12.336Z,99512.28
2023-04-01T17:26:20.327Z,99555.38
2023-04-01T17:31:59.559Z,99544.13
2023-04-01T17:37:55.786Z,99609.16
2023-04-01T17:44:00.158Z,99731.81
2023-04-01T17:49:07.191Z,99684.72
2023-04-01T17:54:37.107Z,99678.13
2023-04-01T17:59:48.531Z,99596.72
2023-04-01T18:05:24.166Z,99553.59
2023-04-01T18:10:31.366Z,99643.25
2023-04-01T18:15:37.548Z,99529.41
2023-04-01T18:21:00.639Z,99579.66
2023-04-01T18:26:23.862Z,99744.50
2023-04-01T18:31:57.883Z,99638.41
2023-04-01T18:36:56.649Z,99639.78
2023-04-01T18:42:06.865Z,99528.88
2023-04-01T18:47:19.748Z,99744.22
2023-04-01T18:52:32.986Z,99611.69
2023-04-01T18:57:57.831Z,99735.81
2023-04-01T19:03:12.664Z,99743.22
2023-04-01T19:08:34.378Z,99721.16
2023-04-01T19:13:47.073Z,99829.81
2023-04-01T19:19:12.483Z,99573.81
2023-04-01T19:24:42.924Z,99632.38
2023-04-01T19:30:02.010Z,99768.78
2023-04-01T19:35:17.609Z,99761.38
2023-04-01T19:40:41.714Z,99591.72
2023-04-01T19:45:51.354Z,99667.53
2023-04-01T19:50:51.927Z,99776.91
2023-04-01T19:56:08.433Z,99847.72
2023-04-01T20:01:06.727Z,99849.13
2023-04-01T20:06:29.697Z,99813.09
2023-04-01T20:12:03.228Z,99705.16
2023-04-01T20:23:07.463Z,99662.56
2023-04-01T20:28:07.742Z,99863.06
2023-04-01T20:33:42.890Z,99629.09
2023-04-01T20:39:29.212Z,99864.09
2023-04-01T20:44:39.688Z,99880.16
2023-04-01T20:49:43.542Z,99619.03
2023-04-01T20:55:08.893Z,99830.56
2023-04-01T21:00:22.295Z,99782.88
2023-04-01T21:06:10.267Z,99822.63
2023-04-01T21:12:00.965Z,99844.31
2023-04-01T21:17:09.756Z,99708.25
2023-04-01T21:23:03.848Z,99912.78
2023-04-01T21:28:49.742Z,99790.84
2023-04-01T21:42:02.287Z,99926.72
2023-04-01T21:47:42.753Z,99816.50
2023-04-01T21:53:08.326Z,99790.66
2023-04-01T21:59:18.613Z,99788.22
2023-04-01T22:04:51.230Z,99792.53
2023-04-01T22:10:01.782Z,99737.69
2023-04-01T22:15:07.872Z,99912.22
2023-04-01T22:20:14.046Z,99858.00
2023-04-01T22:25:17.956Z,99915.41
2023-04-01T22:30:24.243Z,99860.16
2023-04-01T22:35:47.109Z,99908.69
2023-04-01T22:40:49.592Z,99716.03
2023-04-01T22:45:59.065Z,99821.72
2023-04-01T22:51:00.424Z,99910.19
2023-04-01T22:56:02.628Z,99917.69
2023-04-01T23:01:09.981Z,99920.38
2023-04-01T23:06:11.698Z,99919.94
2023-04-01T23:11:13.200Z,99874.59
2023-04-01T23:16:08.523Z,99916.66
2023-04-01T23:21:17.516Z,99795.34
2023-04-01T23:26:34.355Z,99826.50
2023-04-01T23:32:24.593Z,99922.47
2023-04-01T23:37:29.420Z,99805.03
2023-04-01T23:42:37.747Z,99831.88
